Time;durP1;ratioP1;P1;durP2;ratioP2;P2;SDS_P1;SDS_P2;PMS_P1;PMS_P2;Temp;Humidity;BMP_temperature;BMP_pressure;BME280_temperature;BME280_humidity;BME280_pressure;Samples;Min_cycle;Max_cycle;Signal;HPM_P1;HPM_P2
2022/08/16 00:02:02;;;;;;;;;;;24.50;60.10;;;;;;6326228;27;19977;-41
2022/08/16 00:05:15;;;;;;;;;;;24.50;60.00;;;;;;6330250;27;19931;-41
2022/08/16 00:08:17;;;;;;;;;;;24.90;60.20;;;;;;6331640;27;19927;-43
2022/08/16 00:11:39;;;;;;;;;;;24.60;60.00;;;;;;6313544;27;20618;-39
2022/08/16 00:14:40;;;;;;;;;;;24.90;60.20;;;;;;6330609;27;19919;-42
2022/08/16 00:17:42;;;;;;;;;;;24.50;60.00;;;;;;6331823;27;19958;-40
2022/08/16 00:20:58;;;;;;;;;;;24.60;60.00;;;;;;6331519;27;19919;-39
2022/08/16 00:24:00;;;;;;;;;;;24.70;60.10;;;;;;6333789;27;19923;-40
2022/08/16 00:27:05;;;;;;;;;;;24.70;60.10;;;;;;6319128;27;19923;-41
2022/08/16 00:30:11;;;;;;;;;;;24.50;60.00;;;;;;6332629;27;19927;-40
2022/08/16 00:33:30;;;;;;;;;;;24.50;60.00;;;;;;6316417;27;19919;-42
2022/08/16 00:36:32;;;;;;;;;;;24.50;60.10;;;;;;6334060;27;19919;-40
2022/08/16 00:39:34;;;;;;;;;;;24.60;60.10;;;;;;6336521;27;19927;-40
2022/08/16 00:42:35;;;;;;;;;;;24.60;60.10;;;;;;6334949;27;20041;-40
2022/08/16 00:45:38;;;;;;;;;;;24.50;60.10;;;;;;6329298;27;19966;-41
2022/08/16 00:49:00;;;;;;;;;;;24.50;60.10;;;;;;6334835;27;19958;-39
2022/08/16 00:52:04;;;;;;;;;;;24.40;60.10;;;;;;6334819;27;19927;-40
2022/08/16 00:55:25;;;;;;;;;;;24.60;60.80;;;;;;6314519;27;20317;-39
2022/08/16 00:58:40;;;;;;;;;;;24.40;60.10;;;;;;6321780;27;20176;-39
2022/08/16 01:01:44;;;;;;;;;;;24.50;60.20;;;;;;6306586;27;20182;-42
2022/08/16 01:04:46;;;;;;;;;;;24.40;60.10;;;;;;6333488;27;19927;-43
2022/08/16 01:08:09;;;;;;;;;;;24.70;60.30;;;;;;6309718;27;19926;-42
2022/08/16 01:11:30;;;;;;;;;;;24.60;60.20;;;;;;6312707;27;20094;-41
2022/08/16 01:14:34;;;;;;;;;;;24.70;60.30;;;;;;6307526;27;19923;-39
2022/08/16 01:17:36;;;;;;;;;;;24.50;60.20;;;;;;6307113;27;20787;-41
2022/08/16 01:20:42;;;;;;;;;;;24.50;60.20;;;;;;6323998;27;19923;-40
2022/08/16 01:23:49;;;;;;;;;;;24.50;60.20;;;;;;6325983;27;20237;-42
2022/08/16 01:27:07;;;;;;;;;;;24.60;60.30;;;;;;6323910;27;20896;-41
2022/08/16 01:30:10;;;;;;;;;;;24.40;60.20;;;;;;6322741;27;20013;-39
2022/08/16 01:33:25;;;;;;;;;;;24.60;60.30;;;;;;6328375;27;20735;-39
2022/08/16 01:36:37;;;;;;;;;;;24.70;60.40;;;;;;6323390;27;19927;-40
2022/08/16 01:39:40;;;;;;;;;;;24.40;60.20;;;;;;6326312;27;19940;-41
2022/08/16 01:42:45;;;;;;;;;;;24.40;60.20;;;;;;6319310;27;20238;-40
2022/08/16 01:45:53;;;;;;;;;;;24.70;60.40;;;;;;6304166;27;19922;-40
2022/08/16 01:49:00;;;;;;;;;;;24.50;60.30;;;;;;6304293;27;19999;-40
2022/08/16 01:52:04;;;;;;;;;;;24.50;60.30;;;;;;6320028;27;20462;-41
2022/08/16 01:55:34;;;;;;;;;;;24.50;60.30;;;;;;6303419;27;19927;-41
2022/08/16 01:58:41;;;;;;;;;;;24.60;60.40;;;;;;6324179;27;20253;-41
2022/08/16 02:01:51;;;;;;;;;;;24.40;60.30;;;;;;6324617;27;19922;-40
2022/08/16 02:05:01;;;;;;;;;;;24.50;60.40;;;;;;6305534;27;19930;-39
2022/08/16 02:08:03;;;;;;;;;;;24.30;60.20;;;;;;6324777;27;20334;-40
2022/08/16 02:11:08;;;;;;;;;;;24.40;60.30;;;;;;6306284;27;20186;-41
2022/08/16 02:14:11;;;;;;;;;;;24.60;60.40;;;;;;6322812;27;20718;-39
2022/08/16 02:17:23;;;;;;;;;;;24.60;60.40;;;;;;6302608;27;20186;-39
2022/08/16 02:20:25;;;;;;;;;;;24.60;60.40;;;;;;6332901;27;20021;-40
2022/08/16 02:23:29;;;;;;;;;;;24.40;60.30;;;;;;6337692;27;19923;-41
2022/08/16 02:26:31;;;;;;;;;;;24.30;60.30;;;;;;6319118;27;19919;-41
2022/08/16 02:29:35;;;;;;;;;;;24.50;60.40;;;;;;6339467;27;19919;-40
2022/08/16 02:32:38;;;;;;;;;;;24.30;60.30;;;;;;6336494;27;19966;-40
2022/08/16 02:35:55;;;;;;;;;;;24.40;60.30;;;;;;6340089;27;19924;-40
2022/08/16 02:39:04;;;;;;;;;;;24.30;60.40;;;;;;6342121;27;19926;-39
2022/08/16 02:42:06;;;;;;;;;;;24.40;60.40;;;;;;6338217;27;19927;-39
2022/08/16 02:45:09;;;;;;;;;;;24.50;60.40;;;;;;6335572;27;19931;-40
2022/08/16 02:48:11;;;;;;;;;;;24.40;60.40;;;;;;6330856;27;20537;-41
2022/08/16 02:51:32;;;;;;;;;;;24.80;60.60;;;;;;6331298;27;19994;-40
2022/08/16 02:54:37;;;;;;;;;;;24.30;60.30;;;;;;6332333;27;20875;-42
2022/08/16 02:57:40;;;;;;;;;;;24.40;60.40;;;;;;6329270;27;19923;-40
2022/08/16 03:00:56;;;;;;;;;;;24.40;60.40;;;;;;6328577;27;20056;-40
2022/08/16 03:04:00;;;;;;;;;;;24.20;60.30;;;;;;6329412;27;20381;-40
2022/08/16 03:07:22;;;;;;;;;;;24.40;60.40;;;;;;6306772;27;19999;-40
2022/08/16 03:10:29;;;;;;;;;;;24.30;60.30;;;;;;6339763;27;19969;-40
2022/08/16 03:13:37;;;;;;;;;;;24.50;60.40;;;;;;6341682;27;19923;-40
2022/08/16 03:16:43;;;;;;;;;;;24.50;60.40;;;;;;6334197;27;20020;-39
2022/08/16 03:20:08;;;;;;;;;;;24.30;60.30;;;;;;6336129;27;19934;-41
2022/08/16 03:23:13;;;;;;;;;;;24.50;60.40;;;;;;6337356;27;20251;-40
2022/08/16 03:26:19;;;;;;;;;;;24.50;60.50;;;;;;6339492;27;20619;-41
2022/08/16 03:29:23;;;;;;;;;;;24.40;60.40;;;;;;6323723;27;19926;-40
2022/08/16 03:32:25;;;;;;;;;;;24.50;60.40;;;;;;6336694;27;19927;-41
2022/08/16 03:35:29;;;;;;;;;;;24.30;60.30;;;;;;6338027;27;19959;-41
2022/08/16 03:38:41;;;;;;;;;;;24.60;60.50;;;;;;6339148;27;20004;-39
2022/08/16 03:41:46;;;;;;;;;;;24.40;60.50;;;;;;6336435;27;20018;-41
2022/08/16 03:44:58;;;;;;;;;;;24.60;60.50;;;;;;6334110;27;20046;-41
2022/08/16 03:48:09;;;;;;;;;;;24.50;60.40;;;;;;6335980;27;19934;-39
2022/08/16 03:51:17;;;;;;;;;;;24.50;60.40;;;;;;6321126;27;20003;-40
2022/08/16 03:54:30;;;;;;;;;;;24.30;60.40;;;;;;6319697;27;19919;-41
2022/08/16 03:57:32;;;;;;;;;;;24.40;60.30;;;;;;6337240;27;19920;-39
2022/08/16 04:00:41;;;;;;;;;;;24.30;60.30;;;;;;6333486;27;19965;-40
2022/08/16 04:03:48;;;;;;;;;;;24.40;60.40;;;;;;6336028;27;20667;-41
2022/08/16 04:06:51;;;;;;;;;;;24.30;60.30;;;;;;6334073;27;19948;-42
2022/08/16 04:09:53;;;;;;;;;;;24.60;60.50;;;;;;6336676;27;20735;-42
2022/08/16 04:12:58;;;;;;;;;;;24.40;60.40;;;;;;6335219;27;19919;-40
2022/08/16 04:16:08;;;;;;;;;;;24.40;60.40;;;;;;6339390;27;19919;-39
2022/08/16 04:19:10;;;;;;;;;;;24.50;60.40;;;;;;6334110;27;20829;-39
2022/08/16 04:22:13;;;;;;;;;;;24.60;60.50;;;;;;6336940;27;19930;-40
2022/08/16 04:25:22;;;;;;;;;;;24.40;60.40;;;;;;6335874;27;19923;-40
2022/08/16 04:28:25;;;;;;;;;;;24.50;60.50;;;;;;6333640;27;19927;-39
2022/08/16 04:31:48;;;;;;;;;;;24.40;60.40;;;;;;6316841;27;19924;-44
2022/08/16 04:35:03;;;;;;;;;;;24.20;60.30;;;;;;6314781;27;19927;-39
2022/08/16 04:38:11;;;;;;;;;;;24.30;60.30;;;;;;6330963;27;19923;-41
2022/08/16 04:41:25;;;;;;;;;;;24.50;60.40;;;;;;6332511;27;19978;-41
2022/08/16 04:44:36;;;;;;;;;;;24.50;60.50;;;;;;6330504;27;19928;-42
2022/08/16 04:48:00;;;;;;;;;;;24.50;60.50;;;;;;6332490;27;19919;-40
2022/08/16 04:51:10;;;;;;;;;;;24.50;60.40;;;;;;6332384;27;20012;-40
2022/08/16 04:54:17;;;;;;;;;;;24.40;60.40;;;;;;6314116;27;19926;-41
2022/08/16 04:57:21;;;;;;;;;;;24.50;60.50;;;;;;6331095;27;19919;-39
2022/08/16 05:00:24;;;;;;;;;;;24.80;60.70;;;;;;6332595;27;19966;-39
2022/08/16 05:03:39;;;;;;;;;;;24.30;60.40;;;;;;6315630;27;19954;-41
2022/08/16 05:07:03;;;;;;;;;;;24.50;60.50;;;;;;6330935;27;19923;-42
2022/08/16 05:10:25;;;;;;;;;;;24.50;60.50;;;;;;6333771;27;19986;-39
2022/08/16 05:13:27;;;;;;;;;;;24.30;60.40;;;;;;6317185;27;19923;-39
2022/08/16 05:16:45;;;;;;;;;;;24.30;60.40;;;;;;6335227;27;19944;-37
2022/08/16 05:19:50;;;;;;;;;;;24.60;60.60;;;;;;6332375;27;19961;-39
2022/08/16 05:23:03;;;;;;;;;;;24.50;60.50;;;;;;6333026;27;19940;-41
2022/08/16 05:26:09;;;;;;;;;;;24.40;60.50;;;;;;6330347;27;20776;-40
2022/08/16 05:29:21;;;;;;;;;;;24.50;60.50;;;;;;6329321;27;19995;-39
2022/08/16 05:32:39;;;;;;;;;;;24.50;60.60;;;;;;6327553;27;19919;-39
2022/08/16 05:35:50;;;;;;;;;;;24.40;60.50;;;;;;6330570;27;19999;-41
2022/08/16 05:39:05;;;;;;;;;;;24.50;60.70;;;;;;6317111;27;20059;-41
2022/08/16 05:42:06;;;;;;;;;;;24.50;60.50;;;;;;6315195;27;20078;-41
2022/08/16 05:45:12;;;;;;;;;;;24.50;60.60;;;;;;6333147;27;19927;-41
2022/08/16 05:48:22;;;;;;;;;;;24.50;60.60;;;;;;6329785;27;19919;-39
2022/08/16 05:51:34;;;;;;;;;;;24.50;60.70;;;;;;6326589;27;19979;-41
2022/08/16 05:54:42;;;;;;;;;;;24.30;60.60;;;;;;6321826;27;19923;-41
2022/08/16 05:57:49;;;;;;;;;;;24.30;60.60;;;;;;6323328;27;19928;-40
2022/08/16 06:00:54;;;;;;;;;;;24.30;60.70;;;;;;6320847;27;20822;-39
2022/08/16 06:03:59;;;;;;;;;;;24.80;60.90;;;;;;6325307;27;19934;-44
2022/08/16 06:07:07;;;;;;;;;;;24.30;60.70;;;;;;6320916;27;19982;-40
2022/08/16 06:10:32;;;;;;;;;;;24.80;60.90;;;;;;6306970;27;19979;-40
2022/08/16 06:13:38;;;;;;;;;;;24.50;60.90;;;;;;6322629;27;20854;-40
2022/08/16 06:16:49;;;;;;;;;;;24.80;61.00;;;;;;6320994;27;20063;-41
2022/08/16 06:19:53;;;;;;;;;;;24.40;61.00;;;;;;6318519;27;19930;-43
2022/08/16 06:22:58;;;;;;;;;;;24.30;60.90;;;;;;6313324;27;20017;-41
2022/08/16 06:26:24;;;;;;;;;;;24.40;60.90;;;;;;6310536;27;19935;-41
2022/08/16 06:29:37;;;;;;;;;;;24.30;60.90;;;;;;6322713;27;19939;-41
2022/08/16 06:32:39;;;;;;;;;;;24.40;61.00;;;;;;6315497;27;19927;-39
2022/08/16 06:35:45;;;;;;;;;;;24.30;61.00;;;;;;6309789;27;19933;-40
2022/08/16 06:38:48;;;;;;;;;;;24.30;61.00;;;;;;6306885;27;19926;-39
2022/08/16 06:42:06;;;;;;;;;;;24.40;61.00;;;;;;6300826;27;19928;-41
2022/08/16 06:45:23;;;;;;;;;;;24.50;61.00;;;;;;6300189;27;20046;-40
2022/08/16 06:48:39;;;;;;;;;;;24.30;61.00;;;;;;6290619;27;19926;-39
2022/08/16 06:51:44;;;;;;;;;;;24.30;60.90;;;;;;6288730;27;19926;-41
2022/08/16 06:54:49;;;;;;;;;;;24.50;61.10;;;;;;6296334;27;20042;-40
2022/08/16 06:57:52;;;;;;;;;;;24.40;61.00;;;;;;6285350;27;19934;-39
2022/08/16 07:00:55;;;;;;;;;;;24.40;61.20;;;;;;6265803;27;19926;-39
2022/08/16 07:04:02;;;;;;;;;;;24.30;61.00;;;;;;6263357;27;20984;-41
2022/08/16 07:07:12;;;;;;;;;;;24.30;61.00;;;;;;6256204;27;21393;-39
2022/08/16 07:10:18;;;;;;;;;;;24.60;61.20;;;;;;6229749;27;19968;-41
2022/08/16 07:13:19;;;;;;;;;;;24.50;61.10;;;;;;6251886;27;19935;-41
2022/08/16 07:16:41;;;;;;;;;;;24.20;60.90;;;;;;6242155;27;19934;-39
2022/08/16 07:19:44;;;;;;;;;;;24.50;61.10;;;;;;6275203;27;19982;-41
2022/08/16 07:23:15;;;;;;;;;;;24.50;61.10;;;;;;6262035;27;19926;-40
2022/08/16 07:26:25;;;;;;;;;;;24.20;60.90;;;;;;6277221;27;19928;-41
2022/08/16 07:29:30;;;;;;;;;;;24.50;60.90;;;;;;6249925;27;19975;-41
2022/08/16 07:32:34;;;;;;;;;;;24.70;60.90;;;;;;6249926;27;21555;-41
2022/08/16 07:35:37;;;;;;;;;;;24.60;60.70;;;;;;6255887;27;19933;-41
2022/08/16 07:38:51;;;;;;;;;;;24.70;60.60;;;;;;6257108;27;20031;-40
2022/08/16 07:41:54;;;;;;;;;;;24.70;60.50;;;;;;6264495;27;19927;-41
2022/08/16 07:44:56;;;;;;;;;;;24.80;60.60;;;;;;6268835;27;20981;-40
2022/08/16 07:47:58;;;;;;;;;;;24.90;60.50;;;;;;6239202;27;19927;-39
2022/08/16 07:51:15;;;;;;;;;;;24.90;60.50;;;;;;6260395;27;19934;-41
2022/08/16 07:54:17;;;;;;;;;;;24.70;60.30;;;;;;6250204;27;20061;-41
2022/08/16 07:57:26;;;;;;;;;;;24.70;60.30;;;;;;6269745;27;19934;-40
2022/08/16 08:00:28;;;;;;;;;;;24.90;60.50;;;;;;6220688;27;19930;-39
2022/08/16 08:03:32;;;;;;;;;;;25.00;60.50;;;;;;6256138;27;20007;-41
2022/08/16 08:06:44;;;;;;;;;;;24.90;60.40;;;;;;6232597;27;19970;-42
2022/08/16 08:09:49;;;;;;;;;;;24.60;60.30;;;;;;6259903;27;19927;-41
2022/08/16 08:12:53;;;;;;;;;;;25.00;60.50;;;;;;6229686;27;19927;-39
2022/08/16 08:15:56;;;;;;;;;;;25.00;60.50;;;;;;6200975;27;19931;-40
2022/08/16 08:18:59;;;;;;;;;;;24.80;60.50;;;;;;6212340;27;19927;-39
2022/08/16 08:22:04;;;;;;;;;;;24.80;60.40;;;;;;6235114;27;20943;-41
2022/08/16 08:25:17;;;;;;;;;;;24.90;60.40;;;;;;6217726;27;19964;-40
2022/08/16 08:28:21;;;;;;;;;;;25.00;60.50;;;;;;6225029;27;19934;-40
2022/08/16 08:31:26;;;;;;;;;;;24.70;60.30;;;;;;6203769;27;19927;-40
2022/08/16 08:34:29;;;;;;;;;;;25.00;60.50;;;;;;6213456;27;19934;-41
2022/08/16 08:37:31;;;;;;;;;;;24.90;60.40;;;;;;6226172;27;19927;-40
2022/08/16 08:40:52;;;;;;;;;;;24.90;60.40;;;;;;6209584;27;20010;-41
2022/08/16 08:43:55;;;;;;;;;;;24.90;60.40;;;;;;6246627;27;19931;-39
2022/08/16 08:46:58;;;;;;;;;;;24.80;60.40;;;;;;6195718;27;19927;-41
2022/08/16 08:50:02;;;;;;;;;;;24.90;60.40;;;;;;6228653;27;19935;-40
2022/08/16 08:53:06;;;;;;;;;;;24.90;60.40;;;;;;6243059;27;22485;-43
2022/08/16 08:56:10;;;;;;;;;;;24.90;60.50;;;;;;6230726;27;20980;-41
2022/08/16 08:59:27;;;;;;;;;;;24.80;60.40;;;;;;6249335;27;19981;-41
2022/08/16 09:02:30;;;;;;;;;;;24.90;60.50;;;;;;6242173;27;19933;-40
2022/08/16 09:05:32;;;;;;;;;;;24.90;60.50;;;;;;6242162;27;19928;-40
2022/08/16 09:08:43;;;;;;;;;;;24.90;60.50;;;;;;6246664;27;20014;-41
2022/08/16 09:11:50;;;;;;;;;;;24.60;60.40;;;;;;6234950;27;20007;-39
2022/08/16 09:15:14;;;;;;;;;;;24.90;60.60;;;;;;6241888;27;19997;-39
2022/08/16 09:18:21;;;;;;;;;;;24.90;60.50;;;;;;6257356;27;19927;-42
2022/08/16 09:21:37;;;;;;;;;;;24.90;60.60;;;;;;6251705;27;20000;-40
2022/08/16 09:24:39;;;;;;;;;;;25.00;60.60;;;;;;6214449;27;19931;-39
2022/08/16 09:27:55;;;;;;;;;;;24.90;60.60;;;;;;6220716;27;19927;-40
2022/08/16 09:31:06;;;;;;;;;;;25.00;60.60;;;;;;6234099;27;19927;-41
2022/08/16 09:34:12;;;;;;;;;;;24.90;60.50;;;;;;6238309;27;20972;-40
2022/08/16 09:37:20;;;;;;;;;;;24.80;60.50;;;;;;6229277;27;19927;-41
2022/08/16 09:40:31;;;;;;;;;;;24.80;60.50;;;;;;6253888;27;20054;-40
2022/08/16 09:43:44;;;;;;;;;;;25.00;60.70;;;;;;6258752;27;19931;-40
2022/08/16 09:47:04;;;;;;;;;;;24.90;60.60;;;;;;6232444;27;22219;-40
2022/08/16 09:50:11;;;;;;;;;;;24.90;60.50;;;;;;6228962;27;19931;-41
2022/08/16 09:53:15;;;;;;;;;;;25.00;60.60;;;;;;6226421;27;19931;-39
2022/08/16 09:56:24;;;;;;;;;;;25.00;60.70;;;;;;6224666;27;19927;-41
2022/08/16 09:59:27;;;;;;;;;;;25.00;61.20;;;;;;6235389;27;19939;-40
2022/08/16 10:02:32;;;;;;;;;;;25.00;60.60;;;;;;6245267;27;19954;-41
2022/08/16 10:05:36;;;;;;;;;;;25.00;60.60;;;;;;6244374;27;19999;-41
2022/08/16 10:08:37;;;;;;;;;;;24.70;60.40;;;;;;6252447;27;19972;-42
2022/08/16 10:15:20;;;;;;;;;;;24.80;60.50;;;;;;6233899;27;21310;-41
2022/08/16 10:18:23;;;;;;;;;;;24.90;60.60;;;;;;6244819;27;19959;-39
2022/08/16 10:21:45;;;;;;;;;;;24.80;61.30;;;;;;6234224;27;19934;-40
2022/08/16 10:24:57;;;;;;;;;;;24.80;60.80;;;;;;6246260;27;19941;-39
2022/08/16 10:28:01;;;;;;;;;;;24.90;60.90;;;;;;6246253;27;20112;-40
2022/08/16 10:31:22;;;;;;;;;;;24.70;60.90;;;;;;6235363;27;21376;-41
2022/08/16 10:34:45;;;;;;;;;;;24.90;61.10;;;;;;6250962;27;20463;-41
2022/08/16 10:37:52;;;;;;;;;;;24.80;61.00;;;;;;6266345;27;19927;-41
2022/08/16 10:40:54;;;;;;;;;;;24.60;61.00;;;;;;6247930;27;20046;-41
2022/08/16 10:43:55;;;;;;;;;;;24.60;61.00;;;;;;6242889;27;20387;-41
2022/08/16 10:46:56;;;;;;;;;;;24.90;61.10;;;;;;6227330;27;20096;-41
2022/08/16 10:49:59;;;;;;;;;;;24.80;61.10;;;;;;6235201;27;19931;-41
2022/08/16 10:53:05;;;;;;;;;;;24.80;61.20;;;;;;6240235;27;19927;-40
2022/08/16 10:56:09;;;;;;;;;;;24.60;61.00;;;;;;6274390;27;19935;-40
2022/08/16 10:59:31;;;;;;;;;;;24.60;61.00;;;;;;6234903;27;19935;-40
2022/08/16 11:02:51;;;;;;;;;;;24.80;61.10;;;;;;6254622;27;19931;-39
2022/08/16 11:06:03;;;;;;;;;;;24.70;61.00;;;;;;6281238;27;19926;-41
2022/08/16 11:09:07;;;;;;;;;;;24.60;60.90;;;;;;6272695;27;19927;-40
2022/08/16 11:12:32;;;;;;;;;;;24.90;60.50;;;;;;6248170;27;20794;-40
2022/08/16 11:15:34;;;;;;;;;;;24.90;61.00;;;;;;6276982;27;19929;-43
2022/08/16 11:18:35;;;;;;;;;;;25.00;61.00;;;;;;6254085;27;20049;-40
2022/08/16 11:21:59;;;;;;;;;;;24.70;60.80;;;;;;6263841;27;21005;-39
2022/08/16 11:25:21;;;;;;;;;;;24.70;60.80;;;;;;6276124;27;19985;-39
2022/08/16 11:28:44;;;;;;;;;;;24.90;60.90;;;;;;6267980;27;20049;-40
2022/08/16 11:32:05;;;;;;;;;;;24.50;60.60;;;;;;6235744;27;19927;-40
2022/08/16 11:35:10;;;;;;;;;;;24.70;60.70;;;;;;6253612;27;19927;-39
2022/08/16 11:38:18;;;;;;;;;;;24.90;60.80;;;;;;6273825;27;19986;-41
2022/08/16 11:41:40;;;;;;;;;;;24.90;60.60;;;;;;6233821;27;20237;-42
2022/08/16 11:44:44;;;;;;;;;;;25.00;60.70;;;;;;6263738;27;19928;-40
2022/08/16 11:47:59;;;;;;;;;;;25.00;60.60;;;;;;6261952;27;19923;-42
2022/08/16 11:51:00;;;;;;;;;;;25.00;60.50;;;;;;6278937;27;19988;-42
2022/08/16 11:54:02;;;;;;;;;;;25.00;60.40;;;;;;6240022;27;20015;-41
2022/08/16 11:57:10;;;;;;;;;;;25.20;60.60;;;;;;6262281;27;19995;-41
2022/08/16 12:00:14;;;;;;;;;;;25.00;60.50;;;;;;6259463;27;20929;-40
2022/08/16 12:03:35;;;;;;;;;;;25.10;60.40;;;;;;6219775;27;19927;-41
2022/08/16 12:06:37;;;;;;;;;;;25.10;60.40;;;;;;6207196;27;21201;-46
2022/08/16 12:09:39;;;;;;;;;;;25.10;60.30;;;;;;6237432;27;19931;-41
2022/08/16 12:12:46;;;;;;;;;;;25.00;60.10;;;;;;6241975;27;21917;-41
2022/08/16 12:15:47;;;;;;;;;;;25.10;60.20;;;;;;6211321;27;20818;-42
2022/08/16 12:18:51;;;;;;;;;;;25.10;60.10;;;;;;6248622;27;19931;-41
2022/08/16 12:21:52;;;;;;;;;;;25.20;60.20;;;;;;6244179;27;20896;-42
2022/08/16 12:25:01;;;;;;;;;;;25.20;60.10;;;;;;6237516;27;19926;-40
2022/08/16 12:28:03;;;;;;;;;;;25.10;60.00;;;;;;6230604;27;20105;-41
2022/08/16 12:31:05;;;;;;;;;;;25.30;60.00;;;;;;6200061;27;20866;-42
2022/08/16 12:34:06;;;;;;;;;;;25.30;60.00;;;;;;6211544;27;21567;-44
2022/08/16 12:37:08;;;;;;;;;;;25.40;60.00;;;;;;6224843;27;20467;-46
2022/08/16 12:40:15;;;;;;;;;;;25.40;59.90;;;;;;6247606;27;20988;-41
2022/08/16 12:43:27;;;;;;;;;;;25.30;59.80;;;;;;6270293;27;20061;-41
2022/08/16 12:46:33;;;;;;;;;;;25.30;59.80;;;;;;6254172;27;21219;-40
2022/08/16 12:49:34;;;;;;;;;;;25.40;59.80;;;;;;6220651;27;19927;-41
2022/08/16 12:52:43;;;;;;;;;;;25.30;59.70;;;;;;6253906;27;21120;-42
2022/08/16 12:55:54;;;;;;;;;;;25.30;59.60;;;;;;6262346;27;19922;-40
2022/08/16 12:58:56;;;;;;;;;;;25.30;59.60;;;;;;6272619;27;20483;-41
2022/08/16 13:01:59;;;;;;;;;;;25.40;59.60;;;;;;6260528;27;19933;-40
2022/08/16 13:05:01;;;;;;;;;;;25.30;59.50;;;;;;6248940;27;19980;-42
2022/08/16 13:08:04;;;;;;;;;;;25.70;59.80;;;;;;6233341;27;19927;-41
2022/08/16 13:11:06;;;;;;;;;;;25.40;59.50;;;;;;6251456;27;20878;-42
2022/08/16 13:14:08;;;;;;;;;;;25.60;59.60;;;;;;6255792;27;19927;-41
2022/08/16 13:17:30;;;;;;;;;;;25.30;59.30;;;;;;6248206;27;19933;-42
2022/08/16 13:20:31;;;;;;;;;;;25.50;59.40;;;;;;6259704;27;19931;-44
2022/08/16 13:23:35;;;;;;;;;;;25.50;59.30;;;;;;6261590;27;19927;-41
2022/08/16 13:26:44;;;;;;;;;;;25.50;59.30;;;;;;6243412;27;19933;-42
2022/08/16 13:29:46;;;;;;;;;;;25.50;59.20;;;;;;6245581;27;19941;-40
2022/08/16 13:32:58;;;;;;;;;;;25.60;59.30;;;;;;6237657;27;19927;-41
2022/08/16 13:36:02;;;;;;;;;;;25.60;59.20;;;;;;6248616;27;20043;-41
2022/08/16 13:39:04;;;;;;;;;;;25.70;59.20;;;;;;6248017;27;19935;-41
2022/08/16 13:42:09;;;;;;;;;;;25.60;59.20;;;;;;6247825;27;20039;-42
2022/08/16 13:45:12;;;;;;;;;;;25.60;59.10;;;;;;6238211;27;19927;-40
2022/08/16 13:48:17;;;;;;;;;;;25.50;59.10;;;;;;6259376;27;19927;-43
2022/08/16 13:51:27;;;;;;;;;;;25.60;59.00;;;;;;6260681;27;19927;-41
2022/08/16 13:54:30;;;;;;;;;;;25.40;58.80;;;;;;6246512;27;21607;-42
2022/08/16 13:57:33;;;;;;;;;;;25.60;58.90;;;;;;6258471;27;19933;-41
2022/08/16 14:00:55;;;;;;;;;;;25.60;58.90;;;;;;6208098;27;19928;-41
2022/08/16 14:04:00;;;;;;;;;;;25.60;58.80;;;;;;6238408;27;19927;-40
2022/08/16 14:07:02;;;;;;;;;;;25.60;58.90;;;;;;6213164;27;32101;-41
2022/08/16 14:10:04;;;;;;;;;;;25.70;58.90;;;;;;6251565;27;20057;-41
2022/08/16 14:13:07;;;;;;;;;;;25.50;58.70;;;;;;6238582;27;19927;-41
2022/08/16 14:16:21;;;;;;;;;;;25.70;58.80;;;;;;6264017;27;21337;-40
2022/08/16 14:19:34;;;;;;;;;;;25.70;58.80;;;;;;6267630;27;22420;-41
2022/08/16 14:22:37;;;;;;;;;;;25.70;58.70;;;;;;6268490;27;21190;-40
2022/08/16 14:25:48;;;;;;;;;;;25.70;58.70;;;;;;6232184;27;19933;-42
2022/08/16 14:28:55;;;;;;;;;;;25.70;58.80;;;;;;6248921;27;19977;-41
2022/08/16 14:32:04;;;;;;;;;;;25.30;58.40;;;;;;6272855;27;20039;-42
2022/08/16 14:35:08;;;;;;;;;;;25.70;58.70;;;;;;6252371;27;19927;-40
2022/08/16 14:38:13;;;;;;;;;;;25.80;58.70;;;;;;6245690;27;19928;-41
2022/08/16 14:41:19;;;;;;;;;;;25.70;58.60;;;;;;6278077;27;19934;-42
2022/08/16 14:44:23;;;;;;;;;;;25.70;58.60;;;;;;6264644;27;19927;-40
2022/08/16 14:47:24;;;;;;;;;;;25.80;59.20;;;;;;6273744;27;19934;-42
2022/08/16 14:50:32;;;;;;;;;;;25.80;58.50;;;;;;6264641;27;20920;-40
2022/08/16 14:53:34;;;;;;;;;;;25.80;58.30;;;;;;6247437;27;19998;-42
2022/08/16 14:56:37;;;;;;;;;;;25.80;58.30;;;;;;6275682;27;19934;-42
2022/08/16 14:59:44;;;;;;;;;;;25.80;58.20;;;;;;6282232;27;19927;-41
2022/08/16 15:02:49;;;;;;;;;;;25.80;58.20;;;;;;6273491;27;20008;-45
2022/08/16 15:05:55;;;;;;;;;;;25.90;58.20;;;;;;6267342;27;19995;-41
2022/08/16 15:08:56;;;;;;;;;;;25.90;58.20;;;;;;6275572;27;19996;-44
2022/08/16 15:12:04;;;;;;;;;;;25.80;58.00;;;;;;6271480;27;20037;-43
2022/08/16 15:15:08;;;;;;;;;;;25.90;57.90;;;;;;6256489;27;19928;-40
2022/08/16 15:18:17;;;;;;;;;;;26.00;57.90;;;;;;6262033;27;21386;-46
2022/08/16 15:21:28;;;;;;;;;;;26.10;57.90;;;;;;6268896;27;20061;-44
2022/08/16 15:24:30;;;;;;;;;;;26.00;57.80;;;;;;6256881;27;39179;-40
2022/08/16 15:27:40;;;;;;;;;;;26.30;57.90;;;;;;6241481;27;21265;-41
2022/08/16 15:30:42;;;;;;;;;;;26.10;57.80;;;;;;6245340;27;19933;-44
2022/08/16 15:34:01;;;;;;;;;;;26.10;57.80;;;;;;6282598;27;19927;-43
2022/08/16 15:37:04;;;;;;;;;;;26.00;57.70;;;;;;6262762;27;19927;-42
2022/08/16 15:40:07;;;;;;;;;;;26.00;57.80;;;;;;6287213;27;20061;-42
2022/08/16 15:43:27;;;;;;;;;;;26.00;57.80;;;;;;6268174;27;19927;-41
2022/08/16 15:46:41;;;;;;;;;;;26.00;57.80;;;;;;6286531;27;20098;-41
2022/08/16 15:49:59;;;;;;;;;;;26.00;57.70;;;;;;6287674;27;19927;-41
2022/08/16 15:53:06;;;;;;;;;;;26.10;57.70;;;;;;6294379;27;20395;-42
2022/08/16 15:56:13;;;;;;;;;;;26.10;57.70;;;;;;6295102;27;21235;-41
2022/08/16 15:59:14;;;;;;;;;;;25.80;57.40;;;;;;6280764;27;20003;-40
2022/08/16 16:02:17;;;;;;;;;;;25.90;57.40;;;;;;6280119;27;19927;-42
2022/08/16 16:05:29;;;;;;;;;;;26.10;57.60;;;;;;6255233;27;19924;-42
2022/08/16 16:08:31;;;;;;;;;;;26.10;57.60;;;;;;6286337;27;19926;-41
2022/08/16 16:11:32;;;;;;;;;;;26.10;57.60;;;;;;6277742;27;21084;-42
2022/08/16 16:14:34;;;;;;;;;;;26.00;57.60;;;;;;6297045;27;19927;-42
2022/08/16 16:17:36;;;;;;;;;;;26.00;57.60;;;;;;6277352;27;19927;-40
2022/08/16 16:20:41;;;;;;;;;;;26.00;57.60;;;;;;6287911;27;19927;-42
2022/08/16 16:23:44;;;;;;;;;;;26.00;57.60;;;;;;6313689;27;20047;-41
2022/08/16 16:26:59;;;;;;;;;;;26.00;57.60;;;;;;6288984;27;19932;-44
2022/08/16 16:30:02;;;;;;;;;;;25.90;57.50;;;;;;6322999;27;19930;-42
2022/08/16 16:33:14;;;;;;;;;;;26.00;57.70;;;;;;6314858;27;19924;-43
2022/08/16 16:36:23;;;;;;;;;;;26.00;57.40;;;;;;6307288;27;20786;-41
2022/08/16 16:39:30;;;;;;;;;;;25.90;57.50;;;;;;6305897;27;20366;-41
2022/08/16 16:42:34;;;;;;;;;;;26.10;57.70;;;;;;6288682;27;20112;-41
2022/08/16 16:45:42;;;;;;;;;;;26.00;57.60;;;;;;6287548;27;19923;-42
2022/08/16 16:48:44;;;;;;;;;;;26.00;57.60;;;;;;6308174;27;20093;-41
2022/08/16 16:51:48;;;;;;;;;;;25.80;57.50;;;;;;6294591;27;20706;-40
2022/08/16 16:54:51;;;;;;;;;;;26.00;57.70;;;;;;6291527;27;20852;-42
2022/08/16 17:01:33;;;;;;;;;;;25.90;57.50;;;;;;6299586;27;20014;-40
2022/08/16 17:04:55;;;;;;;;;;;25.80;57.50;;;;;;6296181;27;19933;-41
2022/08/16 17:07:57;;;;;;;;;;;25.70;57.40;;;;;;6306140;27;19943;-41
2022/08/16 17:10:58;;;;;;;;;;;25.80;57.50;;;;;;6283897;27;20603;-43
2022/08/16 17:14:01;;;;;;;;;;;25.80;57.60;;;;;;6291410;27;20489;-44
2022/08/16 17:17:05;;;;;;;;;;;26.00;57.70;;;;;;6299651;27;19927;-42
2022/08/16 17:20:09;;;;;;;;;;;25.70;57.50;;;;;;6275836;27;20023;-41
2022/08/16 17:23:30;;;;;;;;;;;25.70;57.60;;;;;;6273564;27;20060;-41
2022/08/16 17:26:52;;;;;;;;;;;25.80;57.70;;;;;;6274745;27;20256;-42
2022/08/16 17:29:58;;;;;;;;;;;25.50;57.60;;;;;;6291921;27;19977;-41
2022/08/16 17:33:02;;;;;;;;;;;25.60;57.60;;;;;;6296429;27;20051;-43
2022/08/16 17:36:06;;;;;;;;;;;25.50;57.60;;;;;;6275374;27;19954;-41
2022/08/16 17:39:10;;;;;;;;;;;25.70;57.80;;;;;;6293232;27;20102;-40
2022/08/16 17:42:15;;;;;;;;;;;25.40;57.60;;;;;;6295809;27;19923;-41
2022/08/16 17:45:16;;;;;;;;;;;25.10;57.40;;;;;;6295645;27;20798;-41
2022/08/16 17:48:17;;;;;;;;;;;25.60;57.80;;;;;;6293269;27;20883;-41
2022/08/16 17:51:20;;;;;;;;;;;25.60;57.80;;;;;;6309944;27;20021;-41
2022/08/16 17:54:21;;;;;;;;;;;25.50;57.80;;;;;;6311353;27;20098;-42
2022/08/16 17:57:32;;;;;;;;;;;25.50;57.80;;;;;;6297386;27;20200;-42
2022/08/16 18:00:34;;;;;;;;;;;25.30;57.70;;;;;;6301067;27;20204;-40
2022/08/16 18:03:37;;;;;;;;;;;25.30;57.60;;;;;;6314683;27;19927;-40
2022/08/16 18:06:59;;;;;;;;;;;25.30;57.70;;;;;;6265672;27;20456;-41
2022/08/16 18:10:00;;;;;;;;;;;25.30;57.70;;;;;;6296770;27;21109;-41
2022/08/16 18:13:02;;;;;;;;;;;25.10;57.60;;;;;;6287936;27;19966;-40
2022/08/16 18:16:05;;;;;;;;;;;25.30;57.80;;;;;;6294638;27;20049;-41
2022/08/16 18:19:06;;;;;;;;;;;25.30;57.80;;;;;;6292978;27;20021;-42